Weather at Avery Ranch Airstrip

Public forecast

Using degrees Fahrenheit for public forecast. Weather courtesy of forecast.io.

Closest aviation weather report (METAR) to Avery Ranch Airstrip

Closest report is Siskiyou County Airport, 9.5 nm (17.5 km) NNW. Retrieved 2021/05/18 07:53 UTC (38 minutes ago):

KSIY 180753Z AUTO 36011KT 10SM CLR 12/01 A3009 RMK AO2 SLP180 T01220011 402890044

Closest aviation forecast (TAF) to Avery Ranch Airstrip

Closest forecast is Crater Lake-Klamath Regional Airport, 43.8 nm (81.1 km) NE. Retrieved 2021/05/18 06:36 UTC (2 hours ago):

TAF KLMT 180533Z 1806/1906 28007KT P6SM SKC FM182000 29012G18KT P6SM SCT090